createdAt,value
2018-08-20T00:01:42.860Z,22.08
2018-08-20T00:02:42.920Z,22.08
2018-08-20T00:04:35.921Z,22.10
2018-08-20T00:05:35.980Z,22.04
2018-08-20T00:07:28.973Z,22.10
2018-08-20T00:08:29.035Z,22.08
2018-08-20T00:10:22.038Z,22.08
2018-08-20T00:11:22.098Z,22.08
2018-08-20T00:13:15.089Z,22.06
2018-08-20T00:14:15.156Z,22.08
2018-08-20T00:16:08.156Z,21.98
2018-08-20T00:17:08.212Z,21.98
2018-08-20T00:19:01.206Z,21.96
2018-08-20T00:20:01.274Z,21.96
2018-08-20T00:21:54.273Z,21.93
2018-08-20T00:22:54.332Z,21.88
2018-08-20T00:24:47.342Z,21.96
2018-08-20T00:25:47.396Z,21.92
2018-08-20T00:27:40.390Z,21.91
2018-08-20T00:28:40.453Z,21.85
2018-08-20T00:30:33.457Z,21.92
2018-08-20T00:31:33.515Z,21.85
2018-08-20T00:33:26.515Z,21.80
2018-08-20T00:34:26.574Z,21.82
2018-08-20T00:36:19.583Z,21.83
2018-08-20T00:37:19.635Z,21.85
2018-08-20T00:39:12.631Z,21.82
2018-08-20T00:40:12.692Z,21.73
2018-08-20T00:42:05.698Z,21.82
2018-08-20T00:43:05.751Z,21.79
2018-08-20T00:44:58.751Z,21.79
2018-08-20T00:45:58.809Z,21.77
2018-08-20T00:47:51.804Z,21.69
2018-08-20T00:48:51.872Z,21.72
2018-08-20T00:50:44.868Z,21.61
2018-08-20T00:51:44.925Z,21.55
2018-08-20T00:53:37.921Z,21.57
2018-08-20T00:54:37.983Z,21.58
2018-08-20T00:56:30.984Z,21.57
2018-08-20T00:57:31.040Z,21.54
2018-08-20T00:59:24.039Z,21.48
2018-08-20T01:00:24.104Z,21.52
2018-08-20T01:02:17.106Z,21.52
2018-08-20T01:03:17.163Z,21.55
2018-08-20T01:05:10.169Z,21.52
2018-08-20T01:06:10.264Z,21.52
2018-08-20T01:08:03.214Z,21.46
2018-08-20T01:09:03.278Z,21.55
2018-08-20T01:10:56.279Z,21.57
2018-08-20T01:11:56.336Z,21.55
2018-08-20T01:13:49.328Z,21.57
2018-08-20T01:14:49.394Z,21.50
2018-08-20T01:16:42.395Z,21.50
2018-08-20T01:17:42.454Z,21.46
2018-08-20T01:19:35.445Z,21.39
2018-08-20T01:20:35.510Z,21.51
2018-08-20T01:22:28.510Z,21.39
2018-08-20T01:23:28.565Z,21.45
2018-08-20T01:25:21.566Z,21.45
2018-08-20T01:26:21.622Z,21.45
2018-08-20T01:28:14.615Z,21.46
2018-08-20T01:29:14.683Z,21.35
2018-08-20T01:31:07.686Z,21.42
2018-08-20T01:32:07.740Z,21.46
2018-08-20T01:34:00.731Z,21.42
2018-08-20T01:35:00.798Z,21.32
2018-08-20T01:36:53.797Z,21.43
2018-08-20T01:37:53.849Z,21.37
2018-08-20T01:39:46.846Z,21.43
2018-08-20T01:40:46.914Z,21.39
2018-08-20T01:42:39.915Z,21.39
2018-08-20T01:43:39.983Z,21.42
2018-08-20T01:45:32.968Z,21.43
2018-08-20T01:46:33.032Z,21.42
2018-08-20T01:48:26.018Z,21.37
2018-08-20T01:49:26.087Z,21.37
2018-08-20T01:51:19.085Z,21.36
2018-08-20T01:52:19.147Z,21.36
2018-08-20T01:54:12.154Z,21.42
2018-08-20T01:55:12.220Z,21.35
2018-08-20T01:57:05.221Z,21.40
2018-08-20T01:58:05.280Z,21.39
2018-08-20T01:59:58.279Z,21.43
2018-08-20T02:00:58.339Z,21.45
2018-08-20T02:02:51.339Z,21.42
2018-08-20T02:03:51.397Z,21.33
2018-08-20T02:05:44.402Z,21.35
2018-08-20T02:06:44.454Z,21.33
2018-08-20T02:08:38.462Z,21.36
2018-08-20T02:09:38.525Z,21.37
2018-08-20T02:11:31.535Z,21.30
2018-08-20T02:12:31.592Z,21.30
2018-08-20T02:14:24.585Z,21.25
2018-08-20T02:15:24.650Z,21.15
2018-08-20T02:17:17.650Z,21.30
2018-08-20T02:18:17.707Z,21.18
2018-08-20T02:20:10.702Z,21.30
2018-08-20T02:21:10.767Z,21.15
2018-08-20T02:23:03.764Z,21.15
2018-08-20T02:24:03.824Z,21.22
2018-08-20T02:25:56.823Z,21.27
2018-08-20T02:26:56.880Z,21.22
2018-08-20T02:28:49.873Z,21.27
2018-08-20T02:29:49.937Z,21.21
2018-08-20T02:31:42.941Z,21.14
2018-08-20T02:32:42.998Z,21.17
2018-08-20T02:34:35.988Z,21.20
2018-08-20T02:35:36.053Z,21.18
2018-08-20T02:37:29.054Z,21.15
2018-08-20T02:38:29.112Z,21.12
2018-08-20T02:40:22.105Z,21.06
2018-08-20T02:41:22.173Z,21.11
2018-08-20T02:43:15.171Z,21.20
2018-08-20T02:44:15.227Z,21.09
2018-08-20T02:46:08.236Z,21.11
2018-08-20T02:47:08.296Z,21.00
2018-08-20T02:49:01.291Z,21.14
2018-08-20T02:50:01.359Z,21.07
2018-08-20T02:51:54.359Z,21.14
2018-08-20T02:52:54.415Z,21.15
2018-08-20T02:54:47.410Z,21.14
2018-08-20T02:55:47.474Z,21.07
2018-08-20T02:57:40.475Z,21.14
2018-08-20T02:58:40.532Z,21.00
2018-08-20T03:00:33.527Z,21.02
2018-08-20T03:01:33.590Z,20.92
2018-08-20T03:03:26.589Z,20.96
2018-08-20T03:04:26.648Z,20.99
2018-08-20T03:06:19.646Z,21.06
2018-08-20T03:07:19.703Z,20.97
2018-08-20T03:09:12.697Z,21.00
2018-08-20T03:10:12.760Z,21.03
2018-08-20T03:12:05.761Z,20.97
2018-08-20T03:13:05.819Z,20.95
2018-08-20T03:14:58.811Z,20.96
2018-08-20T03:15:58.874Z,20.97
2018-08-20T03:17:51.877Z,20.93
2018-08-20T03:18:51.934Z,20.96
2018-08-20T03:20:44.927Z,21.02
2018-08-20T03:21:44.995Z,20.96
2018-08-20T03:23:37.993Z,21.00
2018-08-20T03:24:38.050Z,20.99
2018-08-20T03:26:31.052Z,21.00
2018-08-20T03:27:31.108Z,20.97
2018-08-20T03:29:24.104Z,21.02
2018-08-20T03:30:24.172Z,20.96
2018-08-20T03:32:17.168Z,20.99
2018-08-20T03:33:17.230Z,20.95
2018-08-20T03:35:10.215Z,20.97
2018-08-20T03:36:10.280Z,20.97
2018-08-20T03:38:03.280Z,20.87
2018-08-20T03:39:03.338Z,20.93
2018-08-20T03:40:56.331Z,20.93
2018-08-20T03:41:56.389Z,20.90
2018-08-20T03:43:49.395Z,20.92
2018-08-20T03:44:49.453Z,20.77
2018-08-20T03:46:42.453Z,20.84
2018-08-20T03:47:42.515Z,20.84
2018-08-20T03:49:35.503Z,20.88
2018-08-20T03:50:35.570Z,20.85
2018-08-20T03:52:28.570Z,20.80
2018-08-20T03:53:28.626Z,20.92
2018-08-20T03:55:21.632Z,20.85
2018-08-20T03:56:21.684Z,20.84
2018-08-20T03:58:14.685Z,20.90
2018-08-20T03:59:14.740Z,20.90
2018-08-20T04:01:09.238Z,20.88
2018-08-20T04:02:09.304Z,20.95
2018-08-20T04:04:02.304Z,20.92
2018-08-20T04:05:02.412Z,20.84
2018-08-20T04:06:55.360Z,20.84
2018-08-20T04:07:55.435Z,20.87
2018-08-20T04:09:48.407Z,20.87
2018-08-20T04:10:48.471Z,20.84
2018-08-20T04:12:41.472Z,20.87
2018-08-20T04:13:41.530Z,20.84
2018-08-20T04:15:34.521Z,20.81
2018-08-20T04:16:34.587Z,20.88
2018-08-20T04:18:27.583Z,20.90
2018-08-20T04:19:27.646Z,20.84
2018-08-20T04:21:20.632Z,20.81
2018-08-20T04:22:20.697Z,20.77
2018-08-20T04:24:13.696Z,20.70
2018-08-20T04:25:13.752Z,20.74
2018-08-20T04:27:06.751Z,20.67
2018-08-20T04:28:06.808Z,20.77
2018-08-20T04:29:59.803Z,20.78
2018-08-20T04:30:59.865Z,20.85
2018-08-20T04:32:52.863Z,20.88
2018-08-20T04:33:52.923Z,20.95
2018-08-20T04:35:45.922Z,20.84
2018-08-20T04:36:45.984Z,20.81
2018-08-20T04:38:38.988Z,20.84
2018-08-20T04:39:39.039Z,20.80
2018-08-20T04:41:32.033Z,20.72
2018-08-20T04:42:32.096Z,20.81
2018-08-20T04:44:25.097Z,20.67
2018-08-20T04:45:25.153Z,20.75
2018-08-20T04:47:18.151Z,20.81
2018-08-20T04:48:18.208Z,20.69
2018-08-20T04:50:11.305Z,20.80
2018-08-20T04:51:11.417Z,20.77
2018-08-20T04:53:04.263Z,20.72
2018-08-20T04:54:04.322Z,20.84
2018-08-20T04:55:57.314Z,20.81
2018-08-20T04:56:57.381Z,20.82
2018-08-20T04:58:50.377Z,20.82
2018-08-20T04:59:50.440Z,20.82
2018-08-20T05:01:43.931Z,20.92
2018-08-20T05:02:44.000Z,20.82
2018-08-20T05:04:36.995Z,20.80
2018-08-20T05:05:37.055Z,20.90
2018-08-20T05:07:30.054Z,20.82
2018-08-20T05:08:30.112Z,20.80
2018-08-20T05:10:23.106Z,20.92
2018-08-20T05:11:23.170Z,20.93
2018-08-20T05:13:16.176Z,20.88
2018-08-20T05:14:16.237Z,20.92
2018-08-20T05:16:09.227Z,21.03
2018-08-20T05:17:09.291Z,20.93
2018-08-20T05:19:02.351Z,21.00
2018-08-20T05:20:02.349Z,20.96
2018-08-20T05:21:55.340Z,20.97
2018-08-20T05:22:55.411Z,20.99
2018-08-20T05:24:48.404Z,20.99
2018-08-20T05:25:48.460Z,20.97
2018-08-20T05:27:41.466Z,20.96
2018-08-20T05:28:41.525Z,21.00
2018-08-20T05:30:34.517Z,20.99
2018-08-20T05:31:34.583Z,20.99
2018-08-20T05:33:27.579Z,21.03
2018-08-20T05:34:27.636Z,21.14
2018-08-20T05:36:20.630Z,21.03
2018-08-20T05:37:20.694Z,20.95
2018-08-20T05:39:13.690Z,21.02
2018-08-20T05:40:13.754Z,21.02
2018-08-20T05:42:06.743Z,21.02
2018-08-20T05:43:06.811Z,21.05
2018-08-20T05:44:59.808Z,21.06
2018-08-20T05:45:59.864Z,21.20
2018-08-20T05:47:52.866Z,21.09
2018-08-20T05:48:52.927Z,21.17
2018-08-20T05:50:45.923Z,21.17
2018-08-20T05:51:45.985Z,21.21
2018-08-20T05:53:38.984Z,21.20
2018-08-20T05:54:39.041Z,21.11
2018-08-20T05:56:32.046Z,21.20
2018-08-20T05:57:32.105Z,21.15
2018-08-20T05:59:25.107Z,21.17
2018-08-20T06:00:25.165Z,21.12
2018-08-20T06:02:18.156Z,21.15
2018-08-20T06:03:18.221Z,21.15
2018-08-20T06:05:11.224Z,21.17
2018-08-20T06:06:11.277Z,21.20
2018-08-20T06:08:04.278Z,21.12
2018-08-20T06:09:04.333Z,21.20
2018-08-20T06:10:57.327Z,21.22
2018-08-20T06:11:57.391Z,21.25
2018-08-20T06:13:50.391Z,21.22
2018-08-20T06:14:50.445Z,21.30
2018-08-20T06:16:43.436Z,21.24
2018-08-20T06:17:43.501Z,21.27
2018-08-20T06:19:36.502Z,21.20
2018-08-20T06:20:36.560Z,21.30
2018-08-20T06:22:29.574Z,21.33
2018-08-20T06:23:29.616Z,21.22
2018-08-20T06:25:22.616Z,21.32
2018-08-20T06:26:22.673Z,21.20
2018-08-20T06:28:15.667Z,21.24
2018-08-20T06:29:15.733Z,21.22
2018-08-20T06:31:08.721Z,21.30
2018-08-20T06:32:08.785Z,21.30
2018-08-20T06:34:01.787Z,21.27
2018-08-20T06:35:01.842Z,21.27
2018-08-20T06:36:54.836Z,21.39
2018-08-20T06:37:54.903Z,21.37
2018-08-20T06:39:47.914Z,21.30
2018-08-20T06:40:47.956Z,21.27
2018-08-20T06:42:40.951Z,21.29
2018-08-20T06:43:41.013Z,21.27
2018-08-20T06:45:34.011Z,21.32
2018-08-20T06:46:34.070Z,21.37
2018-08-20T06:48:27.070Z,21.42
2018-08-20T06:49:27.127Z,21.42
2018-08-20T06:51:20.119Z,21.46
2018-08-20T06:52:20.183Z,21.46
2018-08-20T06:54:13.189Z,21.39
2018-08-20T06:55:13.245Z,21.50
2018-08-20T06:57:06.238Z,21.51
2018-08-20T06:58:06.302Z,21.58
2018-08-20T06:59:59.301Z,21.66
2018-08-20T07:00:59.363Z,21.70
2018-08-20T07:02:52.352Z,21.83
2018-08-20T07:03:52.418Z,21.79
2018-08-20T07:05:45.427Z,21.92
2018-08-20T07:06:45.472Z,21.88
2018-08-20T07:08:38.518Z,21.92
2018-08-20T07:09:38.549Z,21.91
2018-08-20T07:11:31.542Z,21.98
2018-08-20T07:12:31.607Z,21.91
2018-08-20T07:14:24.605Z,22.00
2018-08-20T07:15:24.662Z,22.06
2018-08-20T07:17:17.655Z,22.06
2018-08-20T07:18:17.727Z,22.02
2018-08-20T07:20:10.728Z,22.10
2018-08-20T07:21:10.786Z,22.06
2018-08-20T07:23:03.821Z,22.02
2018-08-20T07:24:03.843Z,21.99
2018-08-20T07:25:56.843Z,22.06
2018-08-20T07:26:56.900Z,22.14
2018-08-20T07:28:49.900Z,22.00
2018-08-20T07:29:49.958Z,21.98
2018-08-20T07:31:42.951Z,21.89
2018-08-20T07:32:43.015Z,21.75
2018-08-20T07:34:36.019Z,21.88
2018-08-20T07:35:36.073Z,21.88
2018-08-20T07:37:29.073Z,21.93
2018-08-20T07:38:29.138Z,21.98
2018-08-20T07:40:22.136Z,21.82
2018-08-20T07:41:22.210Z,21.83
2018-08-20T07:43:15.189Z,21.89
2018-08-20T07:44:15.252Z,21.82
2018-08-20T07:46:08.254Z,21.82
2018-08-20T07:47:08.313Z,21.79
2018-08-20T07:49:01.314Z,22.02
2018-08-20T07:50:01.371Z,22.08
2018-08-20T07:51:54.405Z,22.17
2018-08-20T07:52:54.441Z,22.14
2018-08-20T07:54:47.426Z,22.17
2018-08-20T07:55:47.539Z,22.23
2018-08-20T07:57:40.487Z,22.28
2018-08-20T07:58:40.799Z,22.45
2018-08-20T08:00:33.548Z,22.51
2018-08-20T08:01:33.605Z,22.59
2018-08-20T08:03:26.598Z,22.59
2018-08-20T08:04:26.662Z,22.47
2018-08-20T08:06:19.664Z,22.57
2018-08-20T08:07:19.722Z,22.69
2018-08-20T08:09:12.723Z,22.60
2018-08-20T08:10:12.787Z,22.48
2018-08-20T08:12:05.775Z,22.54
2018-08-20T08:13:05.846Z,22.48
2018-08-20T08:14:58.851Z,22.68
2018-08-20T08:15:58.906Z,22.91
2018-08-20T08:17:51.905Z,22.99
2018-08-20T08:18:51.970Z,23.02
2018-08-20T08:20:44.982Z,23.21
2018-08-20T08:21:45.043Z,23.17
2018-08-20T08:23:38.044Z,23.17
2018-08-20T08:24:38.105Z,23.25
2018-08-20T08:26:31.125Z,23.37
2018-08-20T08:27:31.165Z,23.48
2018-08-20T08:29:24.174Z,23.46
2018-08-20T08:30:24.232Z,23.34
2018-08-20T08:32:17.226Z,23.34
2018-08-20T08:33:17.304Z,23.34
2018-08-20T08:35:10.299Z,23.27
2018-08-20T08:36:10.354Z,23.32
2018-08-20T08:38:03.382Z,23.61
2018-08-20T08:39:03.415Z,23.61
2018-08-20T08:40:56.415Z,23.62
2018-08-20T08:41:56.491Z,23.69
2018-08-20T08:43:49.473Z,23.74
2018-08-20T08:44:49.540Z,23.73
2018-08-20T08:46:42.537Z,23.80
2018-08-20T08:47:42.598Z,23.81
2018-08-20T08:49:35.598Z,23.74
2018-08-20T08:50:35.660Z,23.77
2018-08-20T08:52:28.656Z,23.91
2018-08-20T08:53:28.721Z,23.84
2018-08-20T08:55:21.724Z,23.80
2018-08-20T08:56:21.786Z,23.93
2018-08-20T08:58:14.779Z,23.84
2018-08-20T08:59:14.849Z,23.80
2018-08-20T09:01:08.357Z,23.81
2018-08-20T09:02:08.413Z,23.80
2018-08-20T09:04:01.413Z,23.88
2018-08-20T09:05:01.487Z,23.91
2018-08-20T09:06:54.479Z,23.91
2018-08-20T09:07:54.539Z,23.92
2018-08-20T09:09:47.546Z,23.98
2018-08-20T09:10:47.605Z,23.87
2018-08-20T09:12:40.599Z,23.69
2018-08-20T09:13:40.702Z,23.69
2018-08-20T09:15:33.670Z,23.59
2018-08-20T09:16:33.729Z,23.54
2018-08-20T09:18:26.734Z,23.48
2018-08-20T09:19:26.790Z,23.34
2018-08-20T09:21:19.797Z,23.31
2018-08-20T09:22:19.863Z,23.32
2018-08-20T09:24:12.857Z,23.44
2018-08-20T09:25:12.924Z,23.47
2018-08-20T09:27:05.922Z,23.58
2018-08-20T09:28:05.981Z,23.63
2018-08-20T09:29:58.993Z,23.77
2018-08-20T09:30:59.049Z,23.88
2018-08-20T09:32:52.045Z,23.78
2018-08-20T09:33:52.126Z,23.81
2018-08-20T09:35:45.113Z,23.77
2018-08-20T09:36:45.172Z,23.73
2018-08-20T09:38:38.173Z,23.59
2018-08-20T09:39:38.235Z,23.50
2018-08-20T09:41:31.241Z,23.55
2018-08-20T09:42:31.305Z,23.61
2018-08-20T09:44:24.292Z,23.61
2018-08-20T09:45:24.360Z,23.66
2018-08-20T09:47:17.363Z,23.68
2018-08-20T09:48:17.423Z,23.83
2018-08-20T09:50:10.430Z,24.10
2018-08-20T09:51:10.486Z,24.35
2018-08-20T09:53:03.480Z,24.50
2018-08-20T09:54:03.547Z,24.54
2018-08-20T09:55:56.548Z,24.47
2018-08-20T09:56:56.612Z,24.47
2018-08-20T09:58:49.605Z,24.68
2018-08-20T09:59:49.669Z,24.74
2018-08-20T10:01:43.186Z,24.89
2018-08-20T10:02:43.241Z,24.86
2018-08-20T10:04:36.233Z,24.96
2018-08-20T10:05:36.354Z,25.04
2018-08-20T10:07:29.322Z,25.10
2018-08-20T10:08:29.367Z,25.10
2018-08-20T10:10:22.372Z,24.78
2018-08-20T10:11:22.431Z,24.91
2018-08-20T10:13:15.436Z,25.06
2018-08-20T10:14:15.499Z,25.04
2018-08-20T10:16:08.501Z,25.01
2018-08-20T10:17:08.562Z,24.93
2018-08-20T10:19:01.567Z,25.07
2018-08-20T10:20:01.630Z,25.14
2018-08-20T10:21:54.642Z,24.93
2018-08-20T10:22:54.704Z,24.76
2018-08-20T10:24:47.701Z,24.43
2018-08-20T10:25:47.770Z,24.24
2018-08-20T10:27:41.279Z,24.18
2018-08-20T10:28:41.341Z,24.13
2018-08-20T10:30:34.353Z,23.99
2018-08-20T10:31:34.409Z,23.93
2018-08-20T10:33:27.409Z,23.95
2018-08-20T10:34:27.472Z,23.83
2018-08-20T10:36:20.475Z,23.69
2018-08-20T10:37:20.532Z,23.62
2018-08-20T10:39:13.529Z,23.55
2018-08-20T10:40:13.596Z,23.56
2018-08-20T10:42:06.596Z,23.47
2018-08-20T10:43:06.656Z,23.61
2018-08-20T10:44:59.653Z,23.69
2018-08-20T10:45:59.722Z,23.63
2018-08-20T10:47:52.724Z,23.68
2018-08-20T10:48:52.782Z,23.62
2018-08-20T10:50:45.793Z,23.56
2018-08-20T10:51:45.852Z,23.51
2018-08-20T10:53:38.847Z,23.44
2018-08-20T10:54:38.913Z,23.41
2018-08-20T10:56:31.940Z,23.37
2018-08-20T10:57:32.002Z,23.28
2018-08-20T10:59:24.994Z,23.28
2018-08-20T11:00:25.061Z,23.37
2018-08-20T11:02:18.572Z,23.32
2018-08-20T11:03:18.630Z,23.28
2018-08-20T11:05:12.137Z,23.03
2018-08-20T11:06:12.196Z,22.94
2018-08-20T11:08:05.201Z,22.88
2018-08-20T11:09:05.260Z,22.93
2018-08-20T11:10:58.296Z,22.83
2018-08-20T11:11:58.323Z,22.78
2018-08-20T11:13:51.330Z,22.70
2018-08-20T11:14:51.399Z,22.78
2018-08-20T11:16:44.410Z,22.65
2018-08-20T11:17:44.473Z,22.54
2018-08-20T11:19:37.452Z,22.51
2018-08-20T11:20:37.519Z,22.51
2018-08-20T11:22:30.588Z,22.43
2018-08-20T11:23:30.591Z,22.54
2018-08-20T11:25:23.576Z,22.53
2018-08-20T11:26:23.659Z,22.54
2018-08-20T11:28:16.652Z,22.68
2018-08-20T11:29:16.713Z,22.70
2018-08-20T11:31:09.710Z,22.94
2018-08-20T11:32:09.773Z,22.98
2018-08-20T11:34:02.774Z,23.03
2018-08-20T11:35:02.835Z,23.02
2018-08-20T11:36:55.848Z,23.12
2018-08-20T11:37:55.896Z,23.13
2018-08-20T11:39:48.898Z,23.23
2018-08-20T11:40:48.959Z,23.21
2018-08-20T11:42:41.965Z,23.50
2018-08-20T11:43:42.037Z,23.68
2018-08-20T11:45:35.030Z,23.83
2018-08-20T11:46:35.199Z,23.92
2018-08-20T11:48:28.128Z,24.14
2018-08-20T11:49:28.164Z,24.28
2018-08-20T11:51:21.168Z,24.24
2018-08-20T11:52:21.222Z,24.35
2018-08-20T11:54:14.243Z,24.36
2018-08-20T11:55:14.301Z,24.45
2018-08-20T11:57:07.316Z,24.55
2018-08-20T11:58:07.375Z,24.51
2018-08-20T12:00:00.380Z,24.68
2018-08-20T12:01:00.460Z,24.60
2018-08-20T12:02:53.494Z,24.69
2018-08-20T12:03:53.504Z,24.76
2018-08-20T12:05:46.519Z,24.65
2018-08-20T12:06:46.595Z,24.76
2018-08-20T12:08:39.597Z,24.73
2018-08-20T12:09:39.656Z,24.70
2018-08-20T12:11:32.665Z,24.57
2018-08-20T12:12:32.715Z,24.43
2018-08-20T12:14:25.718Z,24.42
2018-08-20T12:15:25.789Z,24.35
2018-08-20T12:17:18.807Z,24.40
2018-08-20T12:18:18.856Z,24.38
2018-08-20T12:20:11.876Z,24.53
2018-08-20T12:21:11.938Z,24.54
2018-08-20T12:23:04.948Z,24.68
2018-08-20T12:24:04.983Z,24.73
2018-08-20T12:25:58.007Z,24.81
2018-08-20T12:26:58.071Z,24.98
2018-08-20T12:28:51.107Z,24.98
2018-08-20T12:29:51.139Z,25.06
2018-08-20T12:31:44.159Z,25.11
2018-08-20T12:32:44.218Z,25.26
2018-08-20T12:34:37.230Z,25.28
2018-08-20T12:35:37.285Z,25.50
2018-08-20T12:37:30.341Z,25.48
2018-08-20T12:38:30.373Z,25.58
2018-08-20T12:40:23.512Z,25.53
2018-08-20T12:41:23.445Z,25.51
2018-08-20T12:43:16.426Z,25.75
2018-08-20T12:44:16.510Z,25.70
2018-08-20T12:46:09.515Z,25.68
2018-08-20T12:47:09.561Z,25.73
2018-08-20T12:49:02.566Z,25.69
2018-08-20T12:50:02.628Z,25.66
2018-08-20T12:51:55.635Z,25.80
2018-08-20T12:52:55.727Z,26.06
2018-08-20T12:54:48.702Z,26.07
2018-08-20T12:55:48.773Z,26.03
2018-08-20T12:57:41.781Z,26.00
2018-08-20T12:58:41.862Z,26.10
2018-08-20T13:00:34.889Z,26.13
2018-08-20T13:01:34.904Z,26.19
2018-08-20T13:03:27.924Z,26.28
2018-08-20T13:04:27.973Z,26.21
2018-08-20T13:06:21.480Z,26.25
2018-08-20T13:07:21.554Z,26.21
2018-08-20T13:09:14.556Z,26.26
2018-08-20T13:10:14.618Z,26.16
2018-08-20T13:12:07.663Z,26.13
2018-08-20T13:13:07.705Z,26.06
2018-08-20T13:15:01.578Z,26.00
2018-08-20T13:16:01.813Z,26.03
2018-08-20T13:17:54.652Z,26.07
2018-08-20T13:18:54.718Z,26.07
2018-08-20T13:20:47.748Z,26.15
2018-08-20T13:21:47.782Z,26.26
2018-08-20T13:23:40.803Z,26.31
2018-08-20T13:24:40.847Z,26.21
2018-08-20T13:26:33.847Z,26.43
2018-08-20T13:27:33.915Z,26.36
2018-08-20T13:29:26.937Z,26.58
2018-08-20T13:30:27.033Z,26.52
2018-08-20T13:32:19.995Z,26.56
2018-08-20T13:33:20.054Z,26.66
2018-08-20T13:35:13.060Z,26.74
2018-08-20T13:36:13.125Z,26.71
2018-08-20T13:38:06.150Z,26.70
2018-08-20T13:39:06.197Z,26.70
2018-08-20T13:40:59.200Z,26.45
2018-08-20T13:41:59.316Z,26.38
2018-08-20T13:43:52.313Z,26.25
2018-08-20T13:44:52.374Z,26.34
2018-08-20T13:46:45.612Z,26.22
2018-08-20T13:47:45.420Z,26.10
2018-08-20T13:49:38.466Z,26.25
2018-08-20T13:50:38.478Z,26.22
2018-08-20T13:52:31.484Z,26.31
2018-08-20T13:53:31.849Z,26.40
2018-08-20T13:55:24.561Z,26.52
2018-08-20T13:56:24.674Z,26.51
2018-08-20T13:58:17.636Z,26.29
2018-08-20T13:59:17.694Z,26.44
2018-08-20T14:01:10.699Z,26.22
2018-08-20T14:02:10.765Z,26.21
2018-08-20T14:04:03.776Z,26.07
2018-08-20T14:05:03.831Z,26.00
2018-08-20T14:06:57.351Z,25.96
2018-08-20T14:07:57.462Z,25.95
2018-08-20T14:09:50.441Z,26.06
2018-08-20T14:10:50.492Z,26.06
2018-08-20T14:12:43.668Z,26.03
2018-08-20T14:13:43.553Z,26.00
2018-08-20T14:15:36.741Z,25.70
2018-08-20T14:16:36.620Z,25.80
2018-08-20T14:18:29.649Z,25.85
2018-08-20T14:19:29.714Z,25.98
2018-08-20T14:21:22.714Z,26.16
2018-08-20T14:22:22.772Z,26.22
2018-08-20T14:24:15.789Z,26.37
2018-08-20T14:25:15.978Z,26.51
2018-08-20T14:27:08.848Z,26.55
2018-08-20T14:28:08.916Z,26.70
2018-08-20T14:30:01.935Z,26.74
2018-08-20T14:31:02.005Z,26.56
2018-08-20T14:32:54.993Z,26.60
2018-08-20T14:33:55.087Z,26.52
2018-08-20T14:35:48.055Z,26.47
2018-08-20T14:36:48.148Z,26.47
2018-08-20T14:38:41.146Z,26.36
2018-08-20T14:39:41.223Z,26.25
2018-08-20T14:41:34.195Z,26.05
2018-08-20T14:42:34.261Z,25.98
2018-08-20T14:44:27.266Z,25.90
2018-08-20T14:45:27.336Z,25.85
2018-08-20T14:47:20.329Z,26.09
2018-08-20T14:48:20.403Z,26.05
2018-08-20T14:50:13.431Z,26.38
2018-08-20T14:51:13.488Z,26.56
2018-08-20T14:53:06.503Z,26.56
2018-08-20T14:54:06.527Z,26.59
2018-08-20T14:55:59.544Z,26.65
2018-08-20T14:56:59.835Z,26.71
2018-08-20T14:58:52.610Z,26.65
2018-08-20T14:59:52.673Z,26.74
2018-08-20T15:01:45.697Z,26.74
2018-08-20T15:02:45.744Z,26.70
2018-08-20T15:04:39.277Z,26.60
2018-08-20T15:05:40.322Z,26.59
2018-08-20T15:07:32.327Z,26.63
2018-08-20T15:08:32.427Z,26.48
2018-08-20T15:10:25.458Z,26.55
2018-08-20T15:11:25.453Z,26.59
2018-08-20T15:13:18.495Z,26.59
2018-08-20T15:14:18.522Z,26.56
2018-08-20T15:16:11.526Z,26.56
2018-08-20T15:17:11.589Z,26.63
2018-08-20T15:19:04.656Z,26.59
2018-08-20T15:20:04.661Z,26.58
2018-08-20T15:21:57.662Z,26.55
2018-08-20T15:22:57.784Z,26.56
2018-08-20T15:24:50.742Z,26.34
2018-08-20T15:25:50.801Z,26.41
2018-08-20T15:27:43.825Z,26.40
2018-08-20T15:28:43.882Z,26.23
2018-08-20T15:30:36.908Z,26.23
2018-08-20T15:31:36.971Z,26.21
2018-08-20T15:33:29.988Z,26.23
2018-08-20T15:34:30.042Z,26.23
2018-08-20T15:36:23.050Z,26.05
2018-08-20T15:37:23.113Z,26.05
2018-08-20T15:39:16.121Z,26.06
2018-08-20T15:40:16.178Z,26.00
2018-08-20T15:42:09.203Z,25.98
2018-08-20T15:43:09.249Z,25.98
2018-08-20T15:45:02.274Z,25.95
2018-08-20T15:46:02.337Z,25.84
2018-08-20T15:47:55.326Z,25.85
2018-08-20T15:48:55.389Z,25.73
2018-08-20T15:50:48.407Z,25.73
2018-08-20T15:51:48.458Z,25.59
2018-08-20T15:53:41.466Z,25.63
2018-08-20T15:54:41.526Z,25.66
2018-08-20T15:56:34.530Z,25.58
2018-08-20T15:57:34.592Z,25.54
2018-08-20T15:59:27.602Z,25.43
2018-08-20T16:00:27.657Z,25.48
2018-08-20T16:02:20.690Z,25.40
2018-08-20T16:03:20.727Z,25.41
2018-08-20T16:05:15.402Z,25.29
2018-08-20T16:06:15.475Z,25.22
2018-08-20T16:08:08.479Z,25.06
2018-08-20T16:09:08.547Z,25.06
2018-08-20T16:11:01.556Z,25.04
2018-08-20T16:12:01.616Z,24.96
2018-08-20T16:13:54.619Z,24.93
2018-08-20T16:14:54.679Z,24.93
2018-08-20T16:16:47.682Z,24.78
2018-08-20T16:17:47.747Z,24.89
2018-08-20T16:19:40.750Z,24.81
2018-08-20T16:20:40.815Z,24.69
2018-08-20T16:22:33.818Z,24.77
2018-08-20T16:23:33.879Z,24.70
2018-08-20T16:25:26.886Z,24.60
2018-08-20T16:26:26.950Z,24.70
2018-08-20T16:28:19.951Z,24.65
2018-08-20T16:29:20.019Z,24.68
2018-08-20T16:31:13.044Z,24.63
2018-08-20T16:32:13.099Z,24.73
2018-08-20T16:34:06.104Z,24.69
2018-08-20T16:35:06.152Z,24.76
2018-08-20T16:36:59.150Z,24.74
2018-08-20T16:37:59.216Z,24.69
2018-08-20T16:39:52.236Z,24.63
2018-08-20T16:40:52.286Z,24.61
2018-08-20T16:42:45.282Z,24.58
2018-08-20T16:43:45.352Z,24.57
2018-08-20T16:45:38.354Z,24.45
2018-08-20T16:46:38.416Z,24.43
2018-08-20T16:48:31.417Z,24.40
2018-08-20T16:49:31.479Z,24.39
2018-08-20T16:51:24.492Z,24.38
2018-08-20T16:52:24.539Z,24.35
2018-08-20T16:54:17.550Z,24.35
2018-08-20T16:55:17.606Z,24.28
2018-08-20T16:57:10.611Z,24.23
2018-08-20T16:58:10.672Z,24.20
2018-08-20T17:00:03.677Z,24.23
2018-08-20T17:01:03.738Z,24.14
2018-08-20T17:02:56.750Z,24.03
2018-08-20T17:03:56.809Z,24.08
2018-08-20T17:05:49.853Z,24.08
2018-08-20T17:06:49.883Z,24.14
2018-08-20T17:08:42.897Z,24.03
2018-08-20T17:09:42.947Z,24.03
2018-08-20T17:11:35.949Z,23.93
2018-08-20T17:12:36.010Z,23.99
2018-08-20T17:14:29.025Z,23.96
2018-08-20T17:15:29.079Z,23.87
2018-08-20T17:17:22.080Z,23.83
2018-08-20T17:18:22.144Z,23.86
2018-08-20T17:20:15.139Z,23.80
2018-08-20T17:21:15.202Z,23.80
2018-08-20T17:23:08.193Z,23.80
2018-08-20T17:24:08.265Z,23.73
2018-08-20T17:26:01.270Z,23.71
2018-08-20T17:27:01.330Z,23.68
2018-08-20T17:28:54.331Z,23.66
2018-08-20T17:29:54.400Z,23.78
2018-08-20T17:31:47.408Z,23.77
2018-08-20T17:32:47.473Z,23.69
2018-08-20T17:34:40.472Z,23.76
2018-08-20T17:35:40.539Z,23.77
2018-08-20T17:37:33.527Z,23.77
2018-08-20T17:38:33.599Z,23.83
2018-08-20T17:40:26.600Z,23.77
2018-08-20T17:41:26.656Z,23.73
2018-08-20T17:43:19.662Z,23.62
2018-08-20T17:44:19.730Z,23.62
2018-08-20T17:46:12.749Z,23.59
2018-08-20T17:47:12.792Z,23.65
2018-08-20T17:49:05.809Z,23.58
2018-08-20T17:50:05.856Z,23.59
2018-08-20T17:51:58.862Z,23.55
2018-08-20T17:52:58.920Z,23.59
2018-08-20T17:54:51.932Z,23.50
2018-08-20T17:55:51.992Z,23.48
2018-08-20T17:57:45.010Z,23.46
2018-08-20T17:58:45.049Z,23.39
2018-08-20T18:00:38.057Z,23.41
2018-08-20T18:01:38.109Z,23.44
2018-08-20T18:03:31.104Z,23.40
2018-08-20T18:04:31.174Z,23.31
2018-08-20T18:06:24.176Z,23.34
2018-08-20T18:07:24.236Z,23.34
2018-08-20T18:09:17.238Z,23.27
2018-08-20T18:10:17.300Z,23.25
2018-08-20T18:12:10.309Z,23.24
2018-08-20T18:13:10.378Z,23.15
2018-08-20T18:15:03.366Z,23.21
2018-08-20T18:16:03.434Z,23.12
2018-08-20T18:17:56.427Z,23.08
2018-08-20T18:18:56.489Z,23.02
2018-08-20T18:20:49.498Z,23.05
2018-08-20T18:21:49.575Z,23.05
2018-08-20T18:23:42.560Z,23.02
2018-08-20T18:24:42.624Z,23.05
2018-08-20T18:26:35.632Z,22.99
2018-08-20T18:27:35.685Z,22.99
2018-08-20T18:29:28.677Z,22.94
2018-08-20T18:30:28.748Z,22.98
2018-08-20T18:32:21.771Z,22.99
2018-08-20T18:33:21.813Z,22.98
2018-08-20T18:35:14.826Z,22.94